sensor_id;sensor_type;location;lat;lon;timestamp;P1;durP1;ratioP1;P2;durP2;ratioP2
5549;SDS011;2798;42.716;23.256;2023-07-31T00:01:17;3.17;;;2.87;;
5549;SDS011;2798;42.716;23.256;2023-07-31T00:03:43;3.07;;;2.80;;
5549;SDS011;2798;42.716;23.256;2023-07-31T00:06:08;3.00;;;2.53;;
5549;SDS011;2798;42.716;23.256;2023-07-31T00:08:34;2.63;;;2.43;;
5549;SDS011;2798;42.716;23.256;2023-07-31T00:10:59;2.50;;;2.30;;
5549;SDS011;2798;42.716;23.256;2023-07-31T00:13:24;5.43;;;2.87;;
5549;SDS011;2798;42.716;23.256;2023-07-31T00:15:50;3.40;;;2.73;;
5549;SDS011;2798;42.716;23.256;2023-07-31T00:18:15;4.00;;;2.70;;
5549;SDS011;2798;42.716;23.256;2023-07-31T00:20:41;2.97;;;2.70;;
5549;SDS011;2798;42.716;23.256;2023-07-31T00:23:06;4.13;;;3.13;;
5549;SDS011;2798;42.716;23.256;2023-07-31T00:25:32;3.50;;;2.80;;
5549;SDS011;2798;42.716;23.256;2023-07-31T00:27:57;2.87;;;2.57;;
5549;SDS011;2798;42.716;23.256;2023-07-31T00:30:22;4.83;;;2.73;;
5549;SDS011;2798;42.716;23.256;2023-07-31T00:32:50;3.00;;;2.40;;
5549;SDS011;2798;42.716;23.256;2023-07-31T00:35:15;3.07;;;2.83;;
5549;SDS011;2798;42.716;23.256;2023-07-31T00:37:41;3.17;;;2.90;;
5549;SDS011;2798;42.716;23.256;2023-07-31T00:40:06;2.93;;;2.60;;
5549;SDS011;2798;42.716;23.256;2023-07-31T00:42:32;3.57;;;3.27;;
5549;SDS011;2798;42.716;23.256;2023-07-31T00:44:58;3.90;;;3.40;;
5549;SDS011;2798;42.716;23.256;2023-07-31T00:47:23;4.30;;;3.83;;
5549;SDS011;2798;42.716;23.256;2023-07-31T00:49:49;5.77;;;4.00;;
5549;SDS011;2798;42.716;23.256;2023-07-31T00:52:14;5.17;;;4.70;;
5549;SDS011;2798;42.716;23.256;2023-07-31T00:54:40;6.00;;;4.87;;
5549;SDS011;2798;42.716;23.256;2023-07-31T00:57:05;5.37;;;4.97;;
5549;SDS011;2798;42.716;23.256;2023-07-31T00:59:33;7.53;;;5.93;;
5549;SDS011;2798;42.716;23.256;2023-07-31T01:01:59;5.23;;;4.73;;
5549;SDS011;2798;42.716;23.256;2023-07-31T01:04:24;6.03;;;5.50;;
5549;SDS011;2798;42.716;23.256;2023-07-31T01:07:01;6.50;;;5.90;;
5549;SDS011;2798;42.716;23.256;2023-07-31T01:09:36;7.03;;;6.23;;
5549;SDS011;2798;42.716;23.256;2023-07-31T01:12:07;7.40;;;6.57;;
5549;SDS011;2798;42.716;23.256;2023-07-31T01:14:34;7.50;;;6.80;;
5549;SDS011;2798;42.716;23.256;2023-07-31T01:17:00;8.07;;;7.03;;
5549;SDS011;2798;42.716;23.256;2023-07-31T01:19:25;11.10;;;6.57;;
5549;SDS011;2798;42.716;23.256;2023-07-31T01:22:12;7.80;;;7.00;;
5549;SDS011;2798;42.716;23.256;2023-07-31T01:27:39;9.90;;;8.40;;
5549;SDS011;2798;42.716;23.256;2023-07-31T01:30:14;8.80;;;7.87;;
5549;SDS011;2798;42.716;23.256;2023-07-31T01:32:42;9.23;;;7.90;;
5549;SDS011;2798;42.716;23.256;2023-07-31T01:35:08;9.67;;;8.77;;
5549;SDS011;2798;42.716;23.256;2023-07-31T01:37:34;8.70;;;7.90;;
5549;SDS011;2798;42.716;23.256;2023-07-31T01:39:59;11.23;;;9.00;;
5549;SDS011;2798;42.716;23.256;2023-07-31T01:42:25;10.23;;;9.03;;
5549;SDS011;2798;42.716;23.256;2023-07-31T01:44:50;10.33;;;9.10;;
5549;SDS011;2798;42.716;23.256;2023-07-31T01:47:16;11.40;;;10.30;;
5549;SDS011;2798;42.716;23.256;2023-07-31T01:49:41;10.10;;;9.17;;
5549;SDS011;2798;42.716;23.256;2023-07-31T01:52:07;11.83;;;10.63;;
5549;SDS011;2798;42.716;23.256;2023-07-31T01:54:32;10.97;;;9.93;;
5549;SDS011;2798;42.716;23.256;2023-07-31T01:56:58;11.70;;;10.60;;
5549;SDS011;2798;42.716;23.256;2023-07-31T01:59:24;12.77;;;11.57;;
5549;SDS011;2798;42.716;23.256;2023-07-31T02:01:49;14.37;;;10.90;;
5549;SDS011;2798;42.716;23.256;2023-07-31T02:04:15;12.87;;;11.57;;
5549;SDS011;2798;42.716;23.256;2023-07-31T02:06:40;13.17;;;11.93;;
5549;SDS011;2798;42.716;23.256;2023-07-31T02:09:05;12.67;;;11.17;;
5549;SDS011;2798;42.716;23.256;2023-07-31T02:11:31;12.03;;;10.83;;
5549;SDS011;2798;42.716;23.256;2023-07-31T02:13:56;12.90;;;11.70;;
5549;SDS011;2798;42.716;23.256;2023-07-31T02:16:22;12.33;;;11.13;;
5549;SDS011;2798;42.716;23.256;2023-07-31T02:18:47;14.40;;;13.00;;
5549;SDS011;2798;42.716;23.256;2023-07-31T02:21:13;13.00;;;11.03;;
5549;SDS011;2798;42.716;23.256;2023-07-31T02:23:38;13.80;;;12.10;;
5549;SDS011;2798;42.716;23.256;2023-07-31T02:26:03;12.80;;;11.50;;
5549;SDS011;2798;42.716;23.256;2023-07-31T02:28:29;13.47;;;12.10;;
5549;SDS011;2798;42.716;23.256;2023-07-31T02:30:55;14.17;;;12.67;;
5549;SDS011;2798;42.716;23.256;2023-07-31T02:33:20;13.93;;;12.30;;
5549;SDS011;2798;42.716;23.256;2023-07-31T02:35:46;13.50;;;12.07;;
5549;SDS011;2798;42.716;23.256;2023-07-31T02:38:11;14.83;;;13.40;;
5549;SDS011;2798;42.716;23.256;2023-07-31T02:40:37;12.80;;;11.60;;
5549;SDS011;2798;42.716;23.256;2023-07-31T02:43:02;13.93;;;12.53;;
5549;SDS011;2798;42.716;23.256;2023-07-31T02:45:27;12.77;;;11.27;;
5549;SDS011;2798;42.716;23.256;2023-07-31T02:47:53;14.07;;;12.67;;
5549;SDS011;2798;42.716;23.256;2023-07-31T02:50:18;15.37;;;12.90;;
5549;SDS011;2798;42.716;23.256;2023-07-31T02:52:44;14.07;;;12.57;;
5549;SDS011;2798;42.716;23.256;2023-07-31T02:55:09;14.97;;;13.37;;
5549;SDS011;2798;42.716;23.256;2023-07-31T02:57:34;14.00;;;12.70;;
5549;SDS011;2798;42.716;23.256;2023-07-31T03:00:00;14.17;;;12.70;;
5549;SDS011;2798;42.716;23.256;2023-07-31T03:02:25;15.30;;;13.73;;
5549;SDS011;2798;42.716;23.256;2023-07-31T03:04:51;15.03;;;13.53;;
5549;SDS011;2798;42.716;23.256;2023-07-31T03:07:17;14.67;;;13.30;;
5549;SDS011;2798;42.716;23.256;2023-07-31T03:09:42;15.60;;;13.40;;
5549;SDS011;2798;42.716;23.256;2023-07-31T03:12:08;15.50;;;13.80;;
5549;SDS011;2798;42.716;23.256;2023-07-31T03:14:33;14.73;;;13.23;;
5549;SDS011;2798;42.716;23.256;2023-07-31T03:16:59;14.70;;;13.20;;
5549;SDS011;2798;42.716;23.256;2023-07-31T03:19:24;14.33;;;12.83;;
5549;SDS011;2798;42.716;23.256;2023-07-31T03:21:50;15.67;;;13.77;;
5549;SDS011;2798;42.716;23.256;2023-07-31T03:24:15;16.40;;;13.60;;
5549;SDS011;2798;42.716;23.256;2023-07-31T03:26:41;13.97;;;12.57;;
5549;SDS011;2798;42.716;23.256;2023-07-31T03:29:06;19.27;;;15.33;;
5549;SDS011;2798;42.716;23.256;2023-07-31T03:31:32;15.13;;;13.50;;
5549;SDS011;2798;42.716;23.256;2023-07-31T03:33:58;15.33;;;13.73;;
5549;SDS011;2798;42.716;23.256;2023-07-31T03:36:23;19.43;;;14.17;;
5549;SDS011;2798;42.716;23.256;2023-07-31T03:38:49;14.90;;;13.30;;
5549;SDS011;2798;42.716;23.256;2023-07-31T03:41:16;15.93;;;14.23;;
5549;SDS011;2798;42.716;23.256;2023-07-31T03:43:41;14.73;;;13.27;;
5549;SDS011;2798;42.716;23.256;2023-07-31T03:46:07;18.37;;;15.20;;
5549;SDS011;2798;42.716;23.256;2023-07-31T03:48:32;15.53;;;14.00;;
5549;SDS011;2798;42.716;23.256;2023-07-31T03:50:57;17.47;;;15.67;;
5549;SDS011;2798;42.716;23.256;2023-07-31T03:53:23;16.13;;;14.40;;
5549;SDS011;2798;42.716;23.256;2023-07-31T03:55:48;17.80;;;14.80;;
5549;SDS011;2798;42.716;23.256;2023-07-31T03:58:14;16.47;;;14.77;;
5549;SDS011;2798;42.716;23.256;2023-07-31T04:00:39;18.17;;;15.40;;
5549;SDS011;2798;42.716;23.256;2023-07-31T04:03:05;17.60;;;15.80;;
5549;SDS011;2798;42.716;23.256;2023-07-31T04:05:31;18.23;;;16.20;;
5549;SDS011;2798;42.716;23.256;2023-07-31T04:07:58;18.97;;;15.70;;
5549;SDS011;2798;42.716;23.256;2023-07-31T04:10:23;19.10;;;17.07;;
5549;SDS011;2798;42.716;23.256;2023-07-31T04:12:48;19.30;;;17.20;;
5549;SDS011;2798;42.716;23.256;2023-07-31T04:15:14;21.83;;;16.60;;
5549;SDS011;2798;42.716;23.256;2023-07-31T04:17:39;19.33;;;16.60;;
5549;SDS011;2798;42.716;23.256;2023-07-31T04:20:05;17.43;;;15.27;;
5549;SDS011;2798;42.716;23.256;2023-07-31T04:22:31;18.53;;;15.73;;
5549;SDS011;2798;42.716;23.256;2023-07-31T04:24:56;16.87;;;15.10;;
5549;SDS011;2798;42.716;23.256;2023-07-31T04:27:22;18.00;;;16.20;;
5549;SDS011;2798;42.716;23.256;2023-07-31T04:29:47;19.20;;;15.83;;
5549;SDS011;2798;42.716;23.256;2023-07-31T04:32:12;17.13;;;15.33;;
5549;SDS011;2798;42.716;23.256;2023-07-31T04:34:40;19.50;;;15.60;;
5549;SDS011;2798;42.716;23.256;2023-07-31T04:37:06;18.57;;;15.50;;
5549;SDS011;2798;42.716;23.256;2023-07-31T04:39:31;18.07;;;15.03;;
5549;SDS011;2798;42.716;23.256;2023-07-31T04:41:56;17.50;;;15.70;;
5549;SDS011;2798;42.716;23.256;2023-07-31T04:44:22;19.90;;;14.83;;
5549;SDS011;2798;42.716;23.256;2023-07-31T04:46:47;18.47;;;15.77;;
5549;SDS011;2798;42.716;23.256;2023-07-31T04:49:13;17.00;;;15.20;;
5549;SDS011;2798;42.716;23.256;2023-07-31T04:51:38;16.37;;;14.70;;
5549;SDS011;2798;42.716;23.256;2023-07-31T04:54:03;18.87;;;14.30;;
5549;SDS011;2798;42.716;23.256;2023-07-31T04:56:29;16.83;;;15.03;;
5549;SDS011;2798;42.716;23.256;2023-07-31T04:58:54;16.17;;;14.47;;
5549;SDS011;2798;42.716;23.256;2023-07-31T05:01:20;15.53;;;13.93;;
5549;SDS011;2798;42.716;23.256;2023-07-31T05:03:45;16.20;;;14.50;;
5549;SDS011;2798;42.716;23.256;2023-07-31T05:06:11;15.73;;;13.57;;
5549;SDS011;2798;42.716;23.256;2023-07-31T05:08:37;16.77;;;13.60;;
5549;SDS011;2798;42.716;23.256;2023-07-31T05:11:02;16.57;;;14.77;;
5549;SDS011;2798;42.716;23.256;2023-07-31T05:13:28;21.07;;;14.60;;
5549;SDS011;2798;42.716;23.256;2023-07-31T05:15:53;25.23;;;14.23;;
5549;SDS011;2798;42.716;23.256;2023-07-31T05:18:19;26.93;;;15.90;;
5549;SDS011;2798;42.716;23.256;2023-07-31T05:20:44;23.80;;;15.07;;
5549;SDS011;2798;42.716;23.256;2023-07-31T05:23:10;23.07;;;15.20;;
5549;SDS011;2798;42.716;23.256;2023-07-31T05:25:35;23.87;;;14.50;;
5549;SDS011;2798;42.716;23.256;2023-07-31T05:28:00;20.93;;;15.07;;
5549;SDS011;2798;42.716;23.256;2023-07-31T05:30:26;25.00;;;14.07;;
5549;SDS011;2798;42.716;23.256;2023-07-31T05:32:51;20.53;;;12.20;;
5549;SDS011;2798;42.716;23.256;2023-07-31T05:35:17;15.00;;;10.53;;
5549;SDS011;2798;42.716;23.256;2023-07-31T05:37:42;13.93;;;10.60;;
5549;SDS011;2798;42.716;23.256;2023-07-31T05:40:08;24.63;;;10.83;;
5549;SDS011;2798;42.716;23.256;2023-07-31T05:42:34;15.33;;;9.43;;
5549;SDS011;2798;42.716;23.256;2023-07-31T05:45:00;16.40;;;8.93;;
5549;SDS011;2798;42.716;23.256;2023-07-31T05:47:26;11.07;;;9.40;;
5549;SDS011;2798;42.716;23.256;2023-07-31T05:49:51;11.60;;;8.40;;
5549;SDS011;2798;42.716;23.256;2023-07-31T05:52:18;11.57;;;8.20;;
5549;SDS011;2798;42.716;23.256;2023-07-31T05:54:44;11.60;;;7.93;;
5549;SDS011;2798;42.716;23.256;2023-07-31T05:57:11;9.40;;;7.97;;
5549;SDS011;2798;42.716;23.256;2023-07-31T05:59:36;11.17;;;8.23;;
5549;SDS011;2798;42.716;23.256;2023-07-31T06:02:02;8.10;;;6.97;;
5549;SDS011;2798;42.716;23.256;2023-07-31T06:04:27;12.00;;;8.10;;
5549;SDS011;2798;42.716;23.256;2023-07-31T06:06:53;7.37;;;6.60;;
5549;SDS011;2798;42.716;23.256;2023-07-31T06:09:18;8.33;;;6.13;;
5549;SDS011;2798;42.716;23.256;2023-07-31T06:11:45;7.10;;;6.13;;
5549;SDS011;2798;42.716;23.256;2023-07-31T06:14:10;9.33;;;5.97;;
5549;SDS011;2798;42.716;23.256;2023-07-31T06:16:36;7.53;;;5.97;;
5549;SDS011;2798;42.716;23.256;2023-07-31T06:19:01;6.10;;;5.10;;
5549;SDS011;2798;42.716;23.256;2023-07-31T06:21:27;6.10;;;5.07;;
5549;SDS011;2798;42.716;23.256;2023-07-31T06:23:52;6.07;;;4.70;;
5549;SDS011;2798;42.716;23.256;2023-07-31T06:26:18;5.50;;;4.60;;
5549;SDS011;2798;42.716;23.256;2023-07-31T06:28:43;5.43;;;4.60;;
5549;SDS011;2798;42.716;23.256;2023-07-31T06:31:09;4.70;;;4.30;;
5549;SDS011;2798;42.716;23.256;2023-07-31T06:33:34;5.23;;;4.67;;
5549;SDS011;2798;42.716;23.256;2023-07-31T06:36:00;6.07;;;4.30;;
5549;SDS011;2798;42.716;23.256;2023-07-31T06:38:26;6.70;;;4.90;;
5549;SDS011;2798;42.716;23.256;2023-07-31T06:40:52;6.60;;;4.30;;
5549;SDS011;2798;42.716;23.256;2023-07-31T06:43:18;4.00;;;3.60;;
5549;SDS011;2798;42.716;23.256;2023-07-31T06:45:43;4.53;;;3.93;;
5549;SDS011;2798;42.716;23.256;2023-07-31T06:48:09;4.20;;;3.80;;
5549;SDS011;2798;42.716;23.256;2023-07-31T06:50:35;4.97;;;3.80;;
5549;SDS011;2798;42.716;23.256;2023-07-31T06:53:00;4.20;;;3.80;;
5549;SDS011;2798;42.716;23.256;2023-07-31T06:55:26;4.57;;;3.80;;
5549;SDS011;2798;42.716;23.256;2023-07-31T06:57:53;4.10;;;3.77;;
5549;SDS011;2798;42.716;23.256;2023-07-31T07:00:19;3.67;;;3.30;;
5549;SDS011;2798;42.716;23.256;2023-07-31T07:02:46;5.57;;;3.97;;
5549;SDS011;2798;42.716;23.256;2023-07-31T07:05:15;4.13;;;3.30;;
5549;SDS011;2798;42.716;23.256;2023-07-31T07:07:41;4.37;;;3.27;;
5549;SDS011;2798;42.716;23.256;2023-07-31T07:10:08;3.40;;;3.10;;
5549;SDS011;2798;42.716;23.256;2023-07-31T07:12:34;4.10;;;3.47;;
5549;SDS011;2798;42.716;23.256;2023-07-31T07:15:00;3.27;;;2.97;;
5549;SDS011;2798;42.716;23.256;2023-07-31T07:17:27;3.10;;;2.87;;
5549;SDS011;2798;42.716;23.256;2023-07-31T07:19:53;3.70;;;3.40;;
5549;SDS011;2798;42.716;23.256;2023-07-31T07:22:19;3.40;;;3.10;;
5549;SDS011;2798;42.716;23.256;2023-07-31T07:24:44;3.47;;;3.13;;
5549;SDS011;2798;42.716;23.256;2023-07-31T07:27:10;6.03;;;3.30;;
5549;SDS011;2798;42.716;23.256;2023-07-31T07:29:35;3.10;;;2.90;;
5549;SDS011;2798;42.716;23.256;2023-07-31T07:32:01;5.70;;;3.30;;
5549;SDS011;2798;42.716;23.256;2023-07-31T07:34:26;3.17;;;2.90;;
5549;SDS011;2798;42.716;23.256;2023-07-31T07:36:53;4.43;;;4.00;;
5549;SDS011;2798;42.716;23.256;2023-07-31T07:39:18;3.10;;;2.80;;
5549;SDS011;2798;42.716;23.256;2023-07-31T07:41:44;4.87;;;3.40;;
5549;SDS011;2798;42.716;23.256;2023-07-31T07:44:09;2.90;;;2.70;;
5549;SDS011;2798;42.716;23.256;2023-07-31T07:46:35;5.13;;;2.90;;
5549;SDS011;2798;42.716;23.256;2023-07-31T07:49:00;3.77;;;3.27;;
5549;SDS011;2798;42.716;23.256;2023-07-31T07:51:26;3.10;;;2.80;;
5549;SDS011;2798;42.716;23.256;2023-07-31T07:53:51;3.80;;;3.13;;
5549;SDS011;2798;42.716;23.256;2023-07-31T07:56:17;5.00;;;3.00;;
5549;SDS011;2798;42.716;23.256;2023-07-31T07:58:42;4.27;;;2.87;;
5549;SDS011;2798;42.716;23.256;2023-07-31T08:01:08;4.20;;;2.83;;
5549;SDS011;2798;42.716;23.256;2023-07-31T08:03:33;4.03;;;3.70;;
5549;SDS011;2798;42.716;23.256;2023-07-31T08:05:59;5.67;;;3.63;;
5549;SDS011;2798;42.716;23.256;2023-07-31T08:08:25;3.13;;;2.70;;
5549;SDS011;2798;42.716;23.256;2023-07-31T08:10:51;3.27;;;2.97;;
5549;SDS011;2798;42.716;23.256;2023-07-31T08:13:16;3.13;;;2.90;;
5549;SDS011;2798;42.716;23.256;2023-07-31T08:15:42;3.97;;;3.33;;
5549;SDS011;2798;42.716;23.256;2023-07-31T08:18:08;3.10;;;2.80;;
5549;SDS011;2798;42.716;23.256;2023-07-31T08:20:33;5.50;;;2.90;;
5549;SDS011;2798;42.716;23.256;2023-07-31T08:22:59;5.10;;;2.93;;
5549;SDS011;2798;42.716;23.256;2023-07-31T08:25:24;4.53;;;3.13;;
5549;SDS011;2798;42.716;23.256;2023-07-31T08:27:50;4.97;;;3.03;;
5549;SDS011;2798;42.716;23.256;2023-07-31T08:30:17;3.13;;;2.83;;
5549;SDS011;2798;42.716;23.256;2023-07-31T08:32:43;4.93;;;3.27;;
5549;SDS011;2798;42.716;23.256;2023-07-31T08:35:08;3.30;;;3.03;;
5549;SDS011;2798;42.716;23.256;2023-07-31T08:37:34;4.60;;;3.10;;
5549;SDS011;2798;42.716;23.256;2023-07-31T08:39:59;3.10;;;2.80;;
5549;SDS011;2798;42.716;23.256;2023-07-31T08:42:25;3.43;;;3.13;;
5549;SDS011;2798;42.716;23.256;2023-07-31T08:44:50;3.37;;;2.63;;
5549;SDS011;2798;42.716;23.256;2023-07-31T08:47:17;3.67;;;2.83;;
5549;SDS011;2798;42.716;23.256;2023-07-31T08:49:45;3.00;;;2.43;;
5549;SDS011;2798;42.716;23.256;2023-07-31T08:52:12;3.23;;;2.70;;
5549;SDS011;2798;42.716;23.256;2023-07-31T08:54:37;3.53;;;2.97;;
5549;SDS011;2798;42.716;23.256;2023-07-31T08:57:05;2.60;;;2.40;;
5549;SDS011;2798;42.716;23.256;2023-07-31T08:59:31;4.20;;;3.10;;
5549;SDS011;2798;42.716;23.256;2023-07-31T09:02:05;2.97;;;2.70;;
5549;SDS011;2798;42.716;23.256;2023-07-31T09:04:32;4.27;;;3.33;;
5549;SDS011;2798;42.716;23.256;2023-07-31T09:07:02;6.30;;;3.30;;
5549;SDS011;2798;42.716;23.256;2023-07-31T09:09:30;3.20;;;2.90;;
5549;SDS011;2798;42.716;23.256;2023-07-31T09:11:57;3.50;;;2.80;;
5549;SDS011;2798;42.716;23.256;2023-07-31T09:14:24;4.30;;;2.90;;
5549;SDS011;2798;42.716;23.256;2023-07-31T09:16:57;4.03;;;3.10;;
5549;SDS011;2798;42.716;23.256;2023-07-31T09:19:28;5.10;;;2.90;;
5549;SDS011;2798;42.716;23.256;2023-07-31T09:21:59;2.80;;;2.60;;
5549;SDS011;2798;42.716;23.256;2023-07-31T09:24:34;3.50;;;2.80;;
5549;SDS011;2798;42.716;23.256;2023-07-31T09:27:00;4.27;;;2.80;;
5549;SDS011;2798;42.716;23.256;2023-07-31T09:29:27;3.57;;;2.80;;
5549;SDS011;2798;42.716;23.256;2023-07-31T09:31:54;7.60;;;3.03;;
5549;SDS011;2798;42.716;23.256;2023-07-31T09:34:20;3.00;;;2.70;;
5549;SDS011;2798;42.716;23.256;2023-07-31T09:36:54;6.40;;;3.00;;
5549;SDS011;2798;42.716;23.256;2023-07-31T09:39:19;4.03;;;2.47;;
5549;SDS011;2798;42.716;23.256;2023-07-31T09:41:47;2.70;;;2.50;;
5549;SDS011;2798;42.716;23.256;2023-07-31T09:44:19;2.63;;;2.43;;
5549;SDS011;2798;42.716;23.256;2023-07-31T09:46:45;2.50;;;2.27;;
5549;SDS011;2798;42.716;23.256;2023-07-31T09:49:11;2.93;;;2.23;;
5549;SDS011;2798;42.716;23.256;2023-07-31T09:51:38;2.50;;;2.30;;
5549;SDS011;2798;42.716;23.256;2023-07-31T09:56:44;2.10;;;2.00;;
5549;SDS011;2798;42.716;23.256;2023-07-31T09:59:11;3.20;;;2.40;;
5549;SDS011;2798;42.716;23.256;2023-07-31T10:01:42;2.67;;;2.47;;
5549;SDS011;2798;42.716;23.256;2023-07-31T10:04:11;3.40;;;2.40;;
5549;SDS011;2798;42.716;23.256;2023-07-31T10:06:37;2.30;;;2.10;;
5549;SDS011;2798;42.716;23.256;2023-07-31T10:09:07;4.60;;;2.50;;
5549;SDS011;2798;42.716;23.256;2023-07-31T10:11:41;2.10;;;2.00;;
5549;SDS011;2798;42.716;23.256;2023-07-31T10:14:10;2.73;;;2.53;;
5549;SDS011;2798;42.716;23.256;2023-07-31T10:16:37;2.73;;;2.40;;
5549;SDS011;2798;42.716;23.256;2023-07-31T10:19:03;2.37;;;2.17;;
5549;SDS011;2798;42.716;23.256;2023-07-31T10:21:30;3.80;;;2.33;;
5549;SDS011;2798;42.716;23.256;2023-07-31T10:24:01;2.93;;;2.30;;
5549;SDS011;2798;42.716;23.256;2023-07-31T10:26:31;2.60;;;2.40;;
5549;SDS011;2798;42.716;23.256;2023-07-31T10:28:58;2.43;;;2.23;;
5549;SDS011;2798;42.716;23.256;2023-07-31T10:31:24;2.13;;;2.00;;
5549;SDS011;2798;42.716;23.256;2023-07-31T10:33:51;3.77;;;2.27;;
5549;SDS011;2798;42.716;23.256;2023-07-31T10:36:18;2.40;;;2.20;;
5549;SDS011;2798;42.716;23.256;2023-07-31T10:38:45;2.17;;;1.97;;
5549;SDS011;2798;42.716;23.256;2023-07-31T10:41:11;2.00;;;1.90;;
5549;SDS011;2798;42.716;23.256;2023-07-31T10:43:37;4.57;;;2.30;;
5549;SDS011;2798;42.716;23.256;2023-07-31T10:46:09;3.60;;;2.10;;
5549;SDS011;2798;42.716;23.256;2023-07-31T10:48:37;2.40;;;2.20;;
5549;SDS011;2798;42.716;23.256;2023-07-31T10:51:09;2.07;;;1.90;;
5549;SDS011;2798;42.716;23.256;2023-07-31T10:53:37;3.60;;;2.00;;
5549;SDS011;2798;42.716;23.256;2023-07-31T10:56:04;1.80;;;1.70;;
5549;SDS011;2798;42.716;23.256;2023-07-31T10:58:31;1.97;;;1.87;;
5549;SDS011;2798;42.716;23.256;2023-07-31T11:00:58;1.73;;;1.63;;
5549;SDS011;2798;42.716;23.256;2023-07-31T11:03:26;3.23;;;2.13;;
5549;SDS011;2798;42.716;23.256;2023-07-31T11:06:05;1.90;;;1.80;;
5549;SDS011;2798;42.716;23.256;2023-07-31T11:08:31;2.20;;;1.87;;
5549;SDS011;2798;42.716;23.256;2023-07-31T11:13:27;3.40;;;2.10;;
5549;SDS011;2798;42.716;23.256;2023-07-31T11:15:56;3.17;;;1.87;;
5549;SDS011;2798;42.716;23.256;2023-07-31T11:18:22;2.13;;;1.80;;
5549;SDS011;2798;42.716;23.256;2023-07-31T11:20:48;3.93;;;1.70;;
5549;SDS011;2798;42.716;23.256;2023-07-31T11:23:15;1.90;;;1.80;;
5549;SDS011;2798;42.716;23.256;2023-07-31T11:25:41;2.30;;;1.90;;
5549;SDS011;2798;42.716;23.256;2023-07-31T11:28:13;1.90;;;1.80;;
5549;SDS011;2798;42.716;23.256;2023-07-31T11:30:40;5.53;;;1.63;;
5549;SDS011;2798;42.716;23.256;2023-07-31T11:33:06;3.50;;;2.70;;
5549;SDS011;2798;42.716;23.256;2023-07-31T11:35:33;3.93;;;2.53;;
5549;SDS011;2798;42.716;23.256;2023-07-31T11:38:00;2.73;;;2.53;;
5549;SDS011;2798;42.716;23.256;2023-07-31T11:40:27;2.50;;;2.30;;
5549;SDS011;2798;42.716;23.256;2023-07-31T11:42:56;3.43;;;2.70;;
5549;SDS011;2798;42.716;23.256;2023-07-31T11:45:24;2.70;;;2.47;;
5549;SDS011;2798;42.716;23.256;2023-07-31T11:47:51;3.17;;;2.93;;
5549;SDS011;2798;42.716;23.256;2023-07-31T11:50:17;2.83;;;2.63;;
5549;SDS011;2798;42.716;23.256;2023-07-31T11:52:43;3.23;;;2.93;;
5549;SDS011;2798;42.716;23.256;2023-07-31T11:55:11;4.00;;;3.60;;
5549;SDS011;2798;42.716;23.256;2023-07-31T11:57:38;5.00;;;3.33;;
5549;SDS011;2798;42.716;23.256;2023-07-31T12:00:05;4.43;;;3.47;;
5549;SDS011;2798;42.716;23.256;2023-07-31T12:02:33;3.80;;;3.50;;
5549;SDS011;2798;42.716;23.256;2023-07-31T12:04:59;4.27;;;3.90;;
5549;SDS011;2798;42.716;23.256;2023-07-31T12:07:24;4.60;;;4.20;;
5549;SDS011;2798;42.716;23.256;2023-07-31T12:09:50;4.03;;;3.73;;
5549;SDS011;2798;42.716;23.256;2023-07-31T12:12:22;4.70;;;4.30;;
5549;SDS011;2798;42.716;23.256;2023-07-31T12:14:48;4.70;;;3.77;;
5549;SDS011;2798;42.716;23.256;2023-07-31T12:17:16;4.23;;;3.83;;
5549;SDS011;2798;42.716;23.256;2023-07-31T12:19:44;4.70;;;4.03;;
5549;SDS011;2798;42.716;23.256;2023-07-31T12:22:13;3.87;;;3.57;;
5549;SDS011;2798;42.716;23.256;2023-07-31T12:24:40;5.73;;;3.80;;
5549;SDS011;2798;42.716;23.256;2023-07-31T12:27:14;3.60;;;3.30;;
5549;SDS011;2798;42.716;23.256;2023-07-31T12:29:43;3.80;;;3.50;;
5549;SDS011;2798;42.716;23.256;2023-07-31T12:32:24;4.20;;;3.80;;
5549;SDS011;2798;42.716;23.256;2023-07-31T12:34:50;4.40;;;4.00;;
5549;SDS011;2798;42.716;23.256;2023-07-31T12:37:16;5.13;;;4.63;;
5549;SDS011;2798;42.716;23.256;2023-07-31T12:39:42;5.20;;;4.10;;
5549;SDS011;2798;42.716;23.256;2023-07-31T12:42:08;5.03;;;4.03;;
5549;SDS011;2798;42.716;23.256;2023-07-31T12:44:33;4.17;;;3.87;;
5549;SDS011;2798;42.716;23.256;2023-07-31T12:46:59;5.10;;;4.60;;
5549;SDS011;2798;42.716;23.256;2023-07-31T12:49:24;5.20;;;4.80;;
5549;SDS011;2798;42.716;23.256;2023-07-31T12:51:49;8.13;;;4.50;;
5549;SDS011;2798;42.716;23.256;2023-07-31T12:54:15;5.20;;;4.70;;
5549;SDS011;2798;42.716;23.256;2023-07-31T12:56:40;5.20;;;4.80;;
5549;SDS011;2798;42.716;23.256;2023-07-31T12:59:06;5.30;;;4.90;;
5549;SDS011;2798;42.716;23.256;2023-07-31T13:01:31;5.53;;;4.53;;
5549;SDS011;2798;42.716;23.256;2023-07-31T13:03:57;4.70;;;4.30;;
5549;SDS011;2798;42.716;23.256;2023-07-31T13:06:23;4.20;;;3.90;;
5549;SDS011;2798;42.716;23.256;2023-07-31T13:08:49;4.40;;;4.00;;
5549;SDS011;2798;42.716;23.256;2023-07-31T13:11:15;3.93;;;3.63;;
5549;SDS011;2798;42.716;23.256;2023-07-31T13:13:40;4.50;;;4.10;;
5549;SDS011;2798;42.716;23.256;2023-07-31T13:16:05;4.40;;;3.63;;
5549;SDS011;2798;42.716;23.256;2023-07-31T13:18:31;4.77;;;3.60;;
5549;SDS011;2798;42.716;23.256;2023-07-31T13:20:56;3.33;;;3.03;;
5549;SDS011;2798;42.716;23.256;2023-07-31T13:23:21;6.23;;;3.37;;
5549;SDS011;2798;42.716;23.256;2023-07-31T13:25:47;3.57;;;3.27;;
5549;SDS011;2798;42.716;23.256;2023-07-31T13:28:13;3.67;;;3.40;;
5549;SDS011;2798;42.716;23.256;2023-07-31T13:30:39;3.57;;;3.27;;
5549;SDS011;2798;42.716;23.256;2023-07-31T13:33:04;3.90;;;3.50;;
5549;SDS011;2798;42.716;23.256;2023-07-31T13:35:30;5.30;;;3.33;;
5549;SDS011;2798;42.716;23.256;2023-07-31T13:37:56;3.50;;;3.20;;
5549;SDS011;2798;42.716;23.256;2023-07-31T13:40:22;3.60;;;3.30;;
5549;SDS011;2798;42.716;23.256;2023-07-31T13:42:48;3.87;;;3.30;;
5549;SDS011;2798;42.716;23.256;2023-07-31T13:45:13;3.37;;;3.17;;
5549;SDS011;2798;42.716;23.256;2023-07-31T13:47:39;4.07;;;3.33;;
5549;SDS011;2798;42.716;23.256;2023-07-31T13:50:04;3.10;;;2.90;;
5549;SDS011;2798;42.716;23.256;2023-07-31T13:52:30;3.57;;;3.13;;
5549;SDS011;2798;42.716;23.256;2023-07-31T13:54:56;3.70;;;3.40;;
5549;SDS011;2798;42.716;23.256;2023-07-31T13:57:21;3.67;;;3.37;;
5549;SDS011;2798;42.716;23.256;2023-07-31T13:59:48;6.03;;;3.40;;
5549;SDS011;2798;42.716;23.256;2023-07-31T14:02:14;5.40;;;3.23;;
5549;SDS011;2798;42.716;23.256;2023-07-31T14:04:40;6.70;;;3.37;;
5549;SDS011;2798;42.716;23.256;2023-07-31T14:07:05;4.37;;;3.83;;
5549;SDS011;2798;42.716;23.256;2023-07-31T14:09:31;2.97;;;2.77;;
5549;SDS011;2798;42.716;23.256;2023-07-31T14:11:57;3.73;;;3.07;;
5549;SDS011;2798;42.716;23.256;2023-07-31T14:14:22;3.40;;;3.10;;
5549;SDS011;2798;42.716;23.256;2023-07-31T14:16:47;5.83;;;3.20;;
5549;SDS011;2798;42.716;23.256;2023-07-31T14:19:13;3.67;;;2.87;;
5549;SDS011;2798;42.716;23.256;2023-07-31T14:21:38;2.80;;;2.60;;
5549;SDS011;2798;42.716;23.256;2023-07-31T14:24:04;3.17;;;2.97;;
5549;SDS011;2798;42.716;23.256;2023-07-31T14:26:30;3.50;;;3.20;;
5549;SDS011;2798;42.716;23.256;2023-07-31T14:28:55;3.60;;;2.60;;
5549;SDS011;2798;42.716;23.256;2023-07-31T14:31:20;4.00;;;2.70;;
5549;SDS011;2798;42.716;23.256;2023-07-31T14:33:46;3.43;;;2.70;;
5549;SDS011;2798;42.716;23.256;2023-07-31T14:36:11;6.60;;;2.87;;
5549;SDS011;2798;42.716;23.256;2023-07-31T14:38:37;2.83;;;2.63;;
5549;SDS011;2798;42.716;23.256;2023-07-31T14:41:02;3.43;;;3.13;;
5549;SDS011;2798;42.716;23.256;2023-07-31T14:43:28;5.00;;;2.83;;
5549;SDS011;2798;42.716;23.256;2023-07-31T14:45:53;3.33;;;2.87;;
5549;SDS011;2798;42.716;23.256;2023-07-31T14:48:21;2.80;;;2.50;;
5549;SDS011;2798;42.716;23.256;2023-07-31T14:50:46;4.13;;;2.43;;
5549;SDS011;2798;42.716;23.256;2023-07-31T14:53:11;2.90;;;2.60;;
5549;SDS011;2798;42.716;23.256;2023-07-31T14:55:37;4.20;;;2.47;;